createdAt,value
2022-11-08T05:02:34.290Z,92.70
2022-11-08T05:05:00.882Z,92.45
2022-11-08T05:07:28.978Z,92.39
2022-11-08T05:10:01.278Z,92.26
2022-11-08T05:12:28.801Z,92.19
2022-11-08T05:14:55.315Z,92.16
2022-11-08T05:17:21.914Z,92.03
2022-11-08T05:20:07.039Z,91.76
2022-11-08T05:22:52.197Z,91.69
2022-11-08T05:25:33.888Z,91.54
2022-11-08T05:28:00.577Z,91.21
2022-11-08T05:30:27.080Z,91.35
2022-11-08T05:32:53.598Z,91.30
2022-11-08T05:35:21.749Z,91.35
2022-11-08T05:37:48.693Z,91.23
2022-11-08T05:40:15.386Z,91.01
2022-11-08T05:42:42.003Z,90.85
2022-11-08T05:45:09.673Z,90.56
2022-11-08T05:47:36.848Z,90.50
2022-11-08T05:50:03.659Z,90.31
2022-11-08T05:52:30.151Z,90.05
2022-11-08T05:54:56.634Z,89.73
2022-11-08T05:57:23.194Z,89.35
2022-11-08T05:59:49.656Z,89.13
2022-11-08T06:02:17.509Z,89.20
2022-11-08T06:04:44.385Z,89.28
2022-11-08T06:07:10.859Z,88.84
2022-11-08T06:09:37.324Z,88.90
2022-11-08T06:12:04.108Z,88.50
2022-11-08T06:14:30.581Z,88.34
2022-11-08T06:16:57.406Z,88.38
2022-11-08T06:19:24.064Z,88.61
2022-11-08T06:21:50.549Z,88.71
2022-11-08T06:24:17.479Z,88.87
2022-11-08T06:26:44.479Z,89.12
2022-11-08T06:29:11.030Z,89.25
2022-11-08T06:31:42.666Z,89.20
2022-11-08T06:34:09.620Z,89.30
2022-11-08T06:36:36.572Z,89.43
2022-11-08T06:39:03.393Z,89.38
2022-11-08T06:41:30.247Z,88.93
2022-11-08T06:43:56.760Z,88.63
2022-11-08T06:46:23.426Z,87.91
2022-11-08T06:48:51.148Z,87.86
2022-11-08T06:51:18.259Z,87.91
2022-11-08T06:53:44.869Z,88.19
2022-11-08T06:56:12.173Z,88.22
2022-11-08T06:58:39.007Z,88.41
2022-11-08T07:01:07.981Z,88.52
2022-11-08T07:03:35.747Z,88.47
2022-11-08T07:06:06.179Z,87.90
2022-11-08T07:08:33.921Z,86.90
2022-11-08T07:11:00.814Z,86.61
2022-11-08T07:13:27.391Z,85.83
2022-11-08T07:15:57.670Z,85.16
2022-11-08T07:18:24.725Z,84.64
2022-11-08T07:20:52.500Z,83.88
2022-11-08T07:23:19.755Z,82.83
2022-11-08T07:25:46.954Z,81.99
2022-11-08T07:28:17.179Z,82.25
2022-11-08T07:30:47.681Z,81.95
2022-11-08T07:33:15.633Z,81.66
2022-11-08T07:35:44.627Z,81.51
2022-11-08T07:38:11.143Z,80.78
2022-11-08T07:40:37.613Z,80.55
2022-11-08T07:43:12.853Z,80.65
2022-11-08T07:45:40.668Z,79.91
2022-11-08T07:48:11.882Z,79.46
2022-11-08T07:50:40.529Z,79.58
2022-11-08T07:53:08.058Z,79.73
2022-11-08T07:55:38.399Z,79.71
2022-11-08T07:58:05.819Z,79.40
2022-11-08T08:00:36.505Z,79.92
2022-11-08T08:03:04.722Z,79.55
2022-11-08T08:05:37.336Z,79.41
2022-11-08T08:08:04.545Z,80.05
2022-11-08T08:10:31.920Z,80.35
2022-11-08T08:12:58.795Z,80.10
2022-11-08T08:15:26.186Z,79.68
2022-11-08T08:17:53.082Z,79.50
2022-11-08T08:20:19.933Z,79.70
2022-11-08T08:22:48.050Z,79.85
2022-11-08T08:25:15.730Z,79.24
2022-11-08T08:27:49.351Z,79.45
2022-11-08T08:30:17.274Z,79.28
2022-11-08T08:32:47.998Z,78.15
2022-11-08T08:35:20.055Z,78.64
2022-11-08T08:37:46.581Z,78.75
2022-11-08T08:40:13.337Z,78.70
2022-11-08T08:42:39.917Z,78.58
2022-11-08T08:45:12.091Z,78.62
2022-11-08T08:47:41.171Z,78.12
2022-11-08T08:50:07.923Z,78.27
2022-11-08T08:52:34.769Z,78.76
2022-11-08T08:55:01.336Z,78.98
2022-11-08T08:57:27.856Z,78.40
2022-11-08T09:02:42.548Z,78.62
2022-11-08T09:05:10.925Z,78.75
2022-11-08T09:07:37.771Z,78.77
2022-11-08T09:10:06.001Z,78.16
2022-11-08T09:12:33.115Z,77.68
2022-11-08T09:15:00.046Z,77.96
2022-11-08T09:17:30.162Z,77.76
2022-11-08T09:19:57.590Z,78.22
2022-11-08T09:22:24.344Z,78.34
2022-11-08T09:24:51.628Z,78.12
2022-11-08T09:27:18.100Z,77.09
2022-11-08T09:29:44.604Z,77.04
2022-11-08T09:32:11.238Z,77.36
2022-11-08T09:34:37.825Z,76.11
2022-11-08T09:37:04.335Z,75.55
2022-11-08T09:39:30.947Z,75.60
2022-11-08T09:42:29.560Z,76.09
2022-11-08T09:45:06.098Z,76.20
2022-11-08T09:47:45.728Z,76.49
2022-11-08T09:50:35.704Z,75.89
2022-11-08T09:53:19.630Z,76.24
2022-11-08T09:55:55.927Z,75.51
2022-11-08T09:58:32.495Z,76.22
2022-11-08T10:00:59.921Z,75.21
2022-11-08T10:03:27.452Z,74.19
2022-11-08T10:06:15.660Z,74.25
2022-11-08T10:09:19.492Z,74.12
2022-11-08T10:12:26.153Z,74.79
2022-11-08T10:15:17.635Z,75.79
2022-11-08T10:17:50.062Z,75.79
2022-11-08T10:20:57.143Z,75.61
2022-11-08T10:23:44.263Z,76.13
2022-11-08T10:26:27.062Z,75.57
2022-11-08T10:28:58.919Z,75.47
2022-11-08T10:31:30.483Z,75.74
2022-11-08T10:33:59.325Z,75.76
2022-11-08T10:36:37.521Z,75.50
2022-11-08T10:39:16.044Z,75.43
2022-11-08T10:42:20.549Z,74.94
2022-11-08T10:44:47.381Z,74.87
2022-11-08T10:47:23.186Z,74.56
2022-11-08T10:49:49.761Z,74.74
2022-11-08T10:52:46.631Z,75.16
2022-11-08T10:55:38.387Z,74.13
2022-11-08T10:58:26.209Z,74.80
2022-11-08T11:01:19.179Z,74.94
2022-11-08T11:03:48.176Z,74.93
2022-11-08T11:06:24.113Z,74.82
2022-11-08T11:09:03.713Z,74.46
2022-11-08T11:11:34.108Z,74.48
2022-11-08T11:14:22.838Z,74.08
2022-11-08T11:17:08.344Z,74.49
2022-11-08T11:19:35.014Z,74.12
2022-11-08T11:22:06.071Z,73.61
2022-11-08T11:24:36.077Z,72.68
2022-11-08T11:27:06.460Z,72.81
2022-11-08T11:29:35.219Z,73.31
2022-11-08T11:32:23.568Z,73.26
2022-11-08T11:34:53.904Z,71.26
2022-11-08T11:37:44.916Z,72.54
2022-11-08T11:40:29.750Z,71.27
2022-11-08T11:43:18.710Z,71.02
2022-11-08T11:46:20.670Z,70.09
2022-11-08T11:48:55.407Z,66.70
2022-11-08T11:51:26.007Z,63.36
2022-11-08T11:53:52.671Z,63.36
2022-11-08T11:56:40.953Z,62.62
2022-11-08T11:59:31.819Z,61.66
2022-11-08T12:02:07.045Z,60.84
2022-11-08T12:04:47.209Z,59.04
2022-11-08T12:07:26.836Z,58.42
2022-11-08T12:10:22.391Z,58.98
2022-11-08T12:13:05.080Z,60.84
2022-11-08T12:15:44.494Z,63.70
2022-11-08T12:18:25.768Z,63.55
2022-11-08T12:21:23.216Z,61.75
2022-11-08T12:24:16.221Z,61.95
2022-11-08T12:27:06.790Z,62.52
2022-11-08T12:30:05.093Z,63.36
2022-11-08T12:32:57.712Z,65.55
2022-11-08T12:35:43.251Z,65.47
2022-11-08T12:38:19.031Z,67.21
2022-11-08T12:41:20.981Z,67.75
2022-11-08T12:43:56.523Z,69.23
2022-11-08T12:46:23.075Z,70.14
2022-11-08T12:48:58.350Z,69.86
2022-11-08T12:51:59.087Z,67.83
2022-11-08T12:54:51.237Z,67.05
2022-11-08T12:57:22.153Z,66.74
2022-11-08T12:59:53.011Z,66.63
2022-11-08T13:02:27.915Z,67.04
2022-11-08T13:05:23.681Z,67.46
2022-11-08T13:07:55.544Z,67.00
2022-11-08T13:10:32.747Z,66.95
2022-11-08T13:13:30.100Z,68.24
2022-11-08T13:16:39.646Z,68.50
2022-11-08T13:19:06.216Z,68.44
2022-11-08T13:21:38.399Z,68.83
2022-11-08T13:24:14.114Z,69.03
2022-11-08T13:26:52.029Z,70.24
2022-11-08T13:29:21.177Z,70.40
2022-11-08T13:32:12.232Z,69.91
2022-11-08T13:34:58.758Z,70.08
2022-11-08T13:37:54.103Z,70.19
2022-11-08T13:40:23.547Z,70.10
2022-11-08T13:42:49.999Z,70.38
2022-11-08T13:45:19.939Z,70.94
2022-11-08T13:47:48.303Z,71.49
2022-11-08T13:50:30.090Z,72.29
2022-11-08T13:53:02.304Z,72.73
2022-11-08T13:55:46.720Z,73.33
2022-11-08T13:58:35.034Z,73.37
2022-11-08T14:01:04.388Z,73.17
2022-11-08T14:03:33.732Z,73.72
2022-11-08T14:06:06.194Z,73.54
2022-11-08T14:09:11.597Z,74.36
2022-11-08T14:12:03.628Z,74.62
2022-11-08T14:14:43.040Z,74.30
2022-11-08T14:17:25.096Z,74.16
2022-11-08T14:19:52.703Z,74.19
2022-11-08T14:22:28.081Z,74.43
2022-11-08T14:25:00.403Z,74.30
2022-11-08T14:27:53.605Z,74.86
2022-11-08T14:30:23.432Z,75.07
2022-11-08T14:33:15.680Z,75.15
2022-11-08T14:35:42.845Z,75.32
2022-11-08T14:38:14.338Z,75.65
2022-11-08T14:40:49.160Z,75.55
2022-11-08T14:43:16.446Z,75.42
2022-11-08T14:45:44.086Z,75.52
2022-11-08T14:48:18.262Z,75.39
2022-11-08T14:50:44.922Z,75.85
2022-11-08T14:53:20.759Z,76.01
2022-11-08T14:55:47.684Z,76.07
2022-11-08T14:58:15.592Z,76.52
2022-11-08T15:00:43.650Z,76.53
2022-11-08T15:03:19.542Z,75.83
2022-11-08T15:05:57.529Z,76.31
2022-11-08T15:08:34.291Z,76.25
2022-11-08T15:11:02.938Z,76.17
2022-11-08T15:13:38.163Z,76.14
2022-11-08T15:16:05.941Z,75.86
2022-11-08T15:18:37.354Z,76.36
2022-11-08T15:21:07.293Z,76.50
2022-11-08T15:23:53.317Z,76.86
2022-11-08T15:26:40.545Z,77.00
2022-11-08T15:29:13.529Z,77.46
2022-11-08T15:32:01.753Z,78.21
2022-11-08T15:34:39.747Z,78.35
2022-11-08T15:37:27.778Z,78.57
2022-11-08T15:39:55.537Z,78.94
2022-11-08T15:42:22.547Z,79.28
2022-11-08T15:45:35.919Z,80.05
2022-11-08T15:48:20.713Z,80.25
2022-11-08T15:50:47.402Z,80.68
2022-11-08T15:53:14.732Z,80.83
2022-11-08T15:55:44.389Z,81.04
2022-11-08T15:58:28.284Z,81.39
2022-11-08T16:00:55.421Z,81.97
2022-11-08T16:03:22.150Z,82.21
2022-11-08T16:05:48.913Z,82.36
2022-11-08T16:08:19.932Z,82.46
2022-11-08T16:10:49.834Z,82.79
2022-11-08T16:13:21.957Z,82.61
2022-11-08T16:15:48.890Z,82.25
2022-11-08T16:18:16.527Z,82.67
2022-11-08T16:20:43.218Z,83.20
2022-11-08T16:23:11.841Z,83.35
2022-11-08T16:25:46.138Z,83.23
2022-11-08T16:28:35.108Z,83.37
2022-11-08T16:31:03.532Z,83.66
2022-11-08T16:33:31.631Z,83.67
2022-11-08T16:36:00.500Z,83.94
2022-11-08T16:38:35.496Z,83.98
2022-11-08T16:41:03.090Z,84.03
2022-11-08T16:43:29.801Z,83.98
2022-11-08T16:46:06.341Z,83.84
2022-11-08T16:48:36.449Z,83.48
2022-11-08T16:51:05.678Z,84.03
2022-11-08T16:53:35.498Z,84.49
2022-11-08T16:56:02.003Z,84.62
2022-11-08T16:58:28.498Z,84.59
2022-11-08T17:00:56.366Z,84.65
2022-11-08T17:03:25.653Z,84.45
2022-11-08T17:05:54.089Z,84.64
2022-11-08T17:08:21.523Z,85.00
2022-11-08T17:10:48.480Z,85.20
2022-11-08T17:13:17.706Z,85.24
2022-11-08T17:15:44.999Z,85.76
2022-11-08T17:18:17.719Z,85.76
2022-11-08T17:20:45.022Z,85.68
2022-11-08T17:23:12.225Z,85.74
2022-11-08T17:25:44.381Z,85.99
2022-11-08T17:28:12.450Z,85.73
2022-11-08T17:30:44.102Z,86.05
2022-11-08T17:33:12.747Z,86.12
2022-11-08T17:35:42.870Z,86.23
2022-11-08T17:38:10.676Z,86.47
2022-11-08T17:40:37.281Z,86.42
2022-11-08T17:43:03.834Z,86.36
2022-11-08T17:45:30.772Z,86.34
2022-11-08T17:47:58.113Z,86.13
2022-11-08T17:50:24.918Z,86.25
2022-11-08T17:52:54.638Z,86.70
2022-11-08T17:55:21.289Z,86.90
2022-11-08T17:57:47.980Z,86.70
2022-11-08T18:00:15.143Z,86.40
2022-11-08T18:02:42.036Z,86.03
2022-11-08T18:05:08.664Z,86.01
2022-11-08T18:07:35.194Z,85.83
2022-11-08T18:10:02.816Z,85.86
2022-11-08T18:12:31.182Z,86.03
2022-11-08T18:14:57.737Z,85.87
2022-11-08T18:17:24.314Z,85.92
2022-11-08T18:19:50.832Z,85.82
2022-11-08T18:22:17.434Z,86.25
2022-11-08T18:24:47.427Z,86.16
2022-11-08T18:27:16.627Z,86.26
2022-11-08T18:29:43.173Z,86.25
2022-11-08T18:32:09.690Z,86.07
2022-11-08T18:34:36.228Z,86.00
2022-11-08T18:37:02.744Z,86.03
2022-11-08T18:39:29.333Z,85.97
2022-11-08T18:41:55.860Z,85.78
2022-11-08T18:44:22.393Z,85.78
2022-11-08T18:46:48.906Z,85.88
2022-11-08T18:49:15.626Z,85.67
2022-11-08T18:51:42.435Z,85.66
2022-11-08T18:54:08.961Z,86.05
2022-11-08T18:56:35.806Z,86.28
2022-11-08T18:59:02.397Z,86.26
2022-11-08T19:01:29.049Z,86.44
2022-11-08T19:03:55.735Z,86.27
2022-11-08T19:06:22.299Z,86.04
2022-11-08T19:08:48.851Z,85.91
2022-11-08T19:11:20.446Z,85.89
2022-11-08T19:13:47.366Z,85.75
2022-11-08T19:16:16.298Z,85.88
2022-11-08T19:18:44.367Z,86.03
2022-11-08T19:21:16.488Z,86.03
2022-11-08T19:23:44.026Z,85.72
2022-11-08T19:26:13.500Z,85.67
2022-11-08T19:28:43.024Z,85.77
2022-11-08T19:31:09.592Z,86.14
2022-11-08T19:33:36.452Z,85.89
2022-11-08T19:36:08.866Z,86.33
2022-11-08T19:38:37.123Z,86.21
2022-11-08T19:41:08.447Z,86.69
2022-11-08T19:43:36.611Z,86.35
2022-11-08T19:46:05.838Z,86.29
2022-11-08T19:48:35.701Z,86.16
2022-11-08T19:51:04.516Z,86.41
2022-11-08T19:53:31.951Z,86.62
2022-11-08T19:56:06.135Z,86.51
2022-11-08T19:58:33.777Z,86.44
2022-11-08T20:01:12.302Z,86.77
2022-11-08T20:03:39.184Z,86.65
2022-11-08T20:06:06.889Z,86.78
2022-11-08T20:08:33.656Z,86.72
2022-11-08T20:11:00.356Z,86.70
2022-11-08T20:13:27.258Z,86.84
2022-11-08T20:15:53.757Z,86.43
2022-11-08T20:18:20.621Z,86.43
2022-11-08T20:20:47.485Z,86.24
2022-11-08T20:23:16.538Z,86.18
2022-11-08T20:25:43.376Z,86.48
2022-11-08T20:28:09.907Z,86.27
2022-11-08T20:30:36.604Z,86.37
2022-11-08T20:33:03.186Z,86.32
2022-11-08T20:35:29.668Z,86.78
2022-11-08T20:37:57.405Z,86.80
2022-11-08T20:40:24.001Z,86.66
2022-11-08T20:42:50.511Z,87.00
2022-11-08T20:45:17.130Z,87.40
2022-11-08T20:47:43.696Z,87.43
2022-11-08T20:50:11.061Z,87.44
2022-11-08T20:52:37.668Z,87.37
2022-11-08T20:55:04.394Z,87.38
2022-11-08T20:57:30.978Z,87.53
2022-11-08T20:59:57.655Z,86.86
2022-11-08T21:02:30.223Z,87.01
2022-11-08T21:04:56.736Z,87.02
2022-11-08T21:12:57.039Z,87.87
2022-11-08T21:15:27.068Z,87.76
2022-11-08T21:17:53.777Z,88.18
2022-11-08T21:20:20.295Z,88.46
2022-11-08T21:22:46.798Z,88.61
2022-11-08T21:25:13.314Z,88.38
2022-11-08T21:27:39.863Z,88.58
2022-11-08T21:30:06.962Z,88.59
2022-11-08T21:32:33.481Z,88.51
2022-11-08T21:35:00.038Z,88.62
2022-11-08T21:37:26.621Z,88.50
2022-11-08T21:39:53.129Z,88.42
2022-11-08T21:42:19.683Z,88.84
2022-11-08T21:44:46.192Z,88.79
2022-11-08T21:47:12.827Z,88.68
2022-11-08T21:49:39.337Z,88.59
2022-11-08T21:52:06.007Z,88.59
2022-11-08T21:54:32.605Z,88.64
2022-11-08T21:56:59.119Z,88.40
2022-11-08T21:59:25.652Z,88.33
2022-11-08T22:01:52.294Z,87.95
2022-11-08T22:04:19.016Z,88.23
2022-11-08T22:06:47.845Z,87.97
2022-11-08T22:09:14.598Z,88.08
2022-11-08T22:11:41.934Z,87.90
2022-11-08T22:14:08.495Z,87.68
2022-11-08T22:16:35.034Z,87.64
2022-11-08T22:19:05.868Z,87.44
2022-11-08T22:21:38.970Z,87.31
2022-11-08T22:24:18.164Z,87.10
2022-11-08T22:26:45.139Z,87.12
2022-11-08T22:29:12.776Z,87.00
2022-11-08T22:31:39.736Z,86.75
2022-11-08T22:34:08.448Z,86.73
2022-11-08T22:36:37.797Z,86.43
2022-11-08T22:39:09.715Z,86.29
2022-11-08T22:41:36.251Z,85.92
2022-11-08T22:44:04.192Z,85.47
2022-11-08T22:46:32.811Z,85.31
2022-11-08T22:48:59.316Z,85.69
2022-11-08T22:51:25.858Z,85.51
2022-11-08T22:53:52.386Z,85.23
2022-11-08T22:56:18.951Z,85.23
2022-11-08T22:58:45.503Z,84.97
